sensor_id;sensor_type;location;lat;lon;timestamp;temperature;humidity
12893;DHT22;6514;48.606;9.222;2022-08-20T00:00:55;17.80;99.90
12893;DHT22;6514;48.606;9.222;2022-08-20T00:03:25;17.80;99.90
12893;DHT22;6514;48.606;9.222;2022-08-20T00:05:56;17.80;99.90
12893;DHT22;6514;48.606;9.222;2022-08-20T00:08:26;17.80;99.90
12893;DHT22;6514;48.606;9.222;2022-08-20T00:10:54;17.70;99.90
12893;DHT22;6514;48.606;9.222;2022-08-20T00:13:25;17.70;99.90
12893;DHT22;6514;48.606;9.222;2022-08-20T00:15:52;17.70;99.90
12893;DHT22;6514;48.606;9.222;2022-08-20T00:18:20;17.70;99.90
12893;DHT22;6514;48.606;9.222;2022-08-20T00:20:50;17.60;99.90
12893;DHT22;6514;48.606;9.222;2022-08-20T00:23:18;17.60;99.90
12893;DHT22;6514;48.606;9.222;2022-08-20T00:25:47;17.60;99.90
12893;DHT22;6514;48.606;9.222;2022-08-20T00:28:15;17.60;99.90
12893;DHT22;6514;48.606;9.222;2022-08-20T00:30:43;17.50;99.90
12893;DHT22;6514;48.606;9.222;2022-08-20T00:33:13;17.40;99.90
12893;DHT22;6514;48.606;9.222;2022-08-20T00:35:44;17.50;99.90
12893;DHT22;6514;48.606;9.222;2022-08-20T00:38:11;17.50;99.90
12893;DHT22;6514;48.606;9.222;2022-08-20T00:40:42;17.40;99.90
12893;DHT22;6514;48.606;9.222;2022-08-20T00:43:27;17.40;99.90
12893;DHT22;6514;48.606;9.222;2022-08-20T00:45:54;17.30;99.90
12893;DHT22;6514;48.606;9.222;2022-08-20T00:48:23;17.30;99.90
12893;DHT22;6514;48.606;9.222;2022-08-20T00:51:00;17.20;99.90
12893;DHT22;6514;48.606;9.222;2022-08-20T00:53:27;17.20;99.90
12893;DHT22;6514;48.606;9.222;2022-08-20T00:55:55;17.20;99.90
12893;DHT22;6514;48.606;9.222;2022-08-20T00:58:23;17.20;99.90
12893;DHT22;6514;48.606;9.222;2022-08-20T01:00:52;17.20;99.90
12893;DHT22;6514;48.606;9.222;2022-08-20T01:03:19;17.20;99.90
12893;DHT22;6514;48.606;9.222;2022-08-20T01:05:49;17.20;99.90
12893;DHT22;6514;48.606;9.222;2022-08-20T01:08:18;17.20;99.90
12893;DHT22;6514;48.606;9.222;2022-08-20T01:10:47;17.20;99.90
12893;DHT22;6514;48.606;9.222;2022-08-20T01:13:17;17.20;99.90
12893;DHT22;6514;48.606;9.222;2022-08-20T01:15:48;17.30;99.90
12893;DHT22;6514;48.606;9.222;2022-08-20T01:18:19;17.30;99.90
12893;DHT22;6514;48.606;9.222;2022-08-20T01:20:51;17.30;99.90
12893;DHT22;6514;48.606;9.222;2022-08-20T01:23:23;17.30;99.90
12893;DHT22;6514;48.606;9.222;2022-08-20T01:25:58;17.20;99.90
12893;DHT22;6514;48.606;9.222;2022-08-20T01:28:33;17.20;99.90
12893;DHT22;6514;48.606;9.222;2022-08-20T01:31:00;17.20;99.90
12893;DHT22;6514;48.606;9.222;2022-08-20T01:33:28;17.20;99.90
12893;DHT22;6514;48.606;9.222;2022-08-20T01:35:55;17.20;99.90
12893;DHT22;6514;48.606;9.222;2022-08-20T01:38:22;17.10;99.90
12893;DHT22;6514;48.606;9.222;2022-08-20T01:43:48;17.10;99.90
12893;DHT22;6514;48.606;9.222;2022-08-20T01:46:23;17.10;99.90
12893;DHT22;6514;48.606;9.222;2022-08-20T01:48:51;17.10;99.90
12893;DHT22;6514;48.606;9.222;2022-08-20T01:51:24;17.10;99.90
12893;DHT22;6514;48.606;9.222;2022-08-20T01:53:54;17.10;99.90
12893;DHT22;6514;48.606;9.222;2022-08-20T01:56:25;17.10;99.90
12893;DHT22;6514;48.606;9.222;2022-08-20T01:58:54;17.20;99.90
12893;DHT22;6514;48.606;9.222;2022-08-20T02:01:29;17.20;99.90
12893;DHT22;6514;48.606;9.222;2022-08-20T02:03:58;17.20;99.90
12893;DHT22;6514;48.606;9.222;2022-08-20T02:06:28;17.20;99.90
12893;DHT22;6514;48.606;9.222;2022-08-20T02:08:57;17.20;99.90
12893;DHT22;6514;48.606;9.222;2022-08-20T02:11:29;17.20;99.90
12893;DHT22;6514;48.606;9.222;2022-08-20T02:13:56;17.20;99.90
12893;DHT22;6514;48.606;9.222;2022-08-20T02:16:28;17.20;99.90
12893;DHT22;6514;48.606;9.222;2022-08-20T02:18:59;17.20;99.90
12893;DHT22;6514;48.606;9.222;2022-08-20T02:21:28;17.10;99.90
12893;DHT22;6514;48.606;9.222;2022-08-20T02:23:57;17.10;99.90
12893;DHT22;6514;48.606;9.222;2022-08-20T02:26:25;17.10;99.90
12893;DHT22;6514;48.606;9.222;2022-08-20T02:28:53;17.10;99.90
12893;DHT22;6514;48.606;9.222;2022-08-20T02:31:21;17.10;99.90
12893;DHT22;6514;48.606;9.222;2022-08-20T02:33:48;17.10;99.90
12893;DHT22;6514;48.606;9.222;2022-08-20T02:36:17;17.10;99.90
12893;DHT22;6514;48.606;9.222;2022-08-20T02:38:45;17.10;99.90
12893;DHT22;6514;48.606;9.222;2022-08-20T02:41:12;17.10;99.90
12893;DHT22;6514;48.606;9.222;2022-08-20T02:43:41;17.10;99.90
12893;DHT22;6514;48.606;9.222;2022-08-20T02:46:08;17.10;99.90
12893;DHT22;6514;48.606;9.222;2022-08-20T02:48:35;17.10;99.90
12893;DHT22;6514;48.606;9.222;2022-08-20T02:51:04;17.00;99.90
12893;DHT22;6514;48.606;9.222;2022-08-20T02:53:34;17.00;99.90
12893;DHT22;6514;48.606;9.222;2022-08-20T02:56:03;17.00;99.90
12893;DHT22;6514;48.606;9.222;2022-08-20T02:58:30;17.00;99.90
12893;DHT22;6514;48.606;9.222;2022-08-20T03:01:00;16.90;99.90
12893;DHT22;6514;48.606;9.222;2022-08-20T03:03:28;16.90;99.90
12893;DHT22;6514;48.606;9.222;2022-08-20T03:05:56;16.90;99.90
12893;DHT22;6514;48.606;9.222;2022-08-20T03:08:24;16.90;99.90
12893;DHT22;6514;48.606;9.222;2022-08-20T03:10:52;16.80;99.90
12893;DHT22;6514;48.606;9.222;2022-08-20T03:13:20;16.80;99.90
12893;DHT22;6514;48.606;9.222;2022-08-20T03:15:49;16.80;99.90
12893;DHT22;6514;48.606;9.222;2022-08-20T03:18:19;16.70;99.90
12893;DHT22;6514;48.606;9.222;2022-08-20T03:20:47;16.80;99.90
12893;DHT22;6514;48.606;9.222;2022-08-20T03:23:15;16.70;99.90
12893;DHT22;6514;48.606;9.222;2022-08-20T03:25:42;16.70;99.90
12893;DHT22;6514;48.606;9.222;2022-08-20T03:28:10;16.70;99.90
12893;DHT22;6514;48.606;9.222;2022-08-20T03:30:37;16.70;99.90
12893;DHT22;6514;48.606;9.222;2022-08-20T03:33:04;16.70;99.90
12893;DHT22;6514;48.606;9.222;2022-08-20T03:35:33;16.70;99.90
12893;DHT22;6514;48.606;9.222;2022-08-20T03:38:00;16.70;99.90
12893;DHT22;6514;48.606;9.222;2022-08-20T03:40:29;16.70;99.90
12893;DHT22;6514;48.606;9.222;2022-08-20T03:42:57;16.70;99.90
12893;DHT22;6514;48.606;9.222;2022-08-20T03:45:25;16.70;99.90
12893;DHT22;6514;48.606;9.222;2022-08-20T03:47:54;16.70;99.90
12893;DHT22;6514;48.606;9.222;2022-08-20T03:50:24;16.70;99.90
12893;DHT22;6514;48.606;9.222;2022-08-20T03:52:54;16.70;99.90
12893;DHT22;6514;48.606;9.222;2022-08-20T03:55:23;16.70;99.90
12893;DHT22;6514;48.606;9.222;2022-08-20T03:57:53;16.70;99.90
12893;DHT22;6514;48.606;9.222;2022-08-20T04:00:22;16.70;99.90
12893;DHT22;6514;48.606;9.222;2022-08-20T04:02:49;16.70;99.90
12893;DHT22;6514;48.606;9.222;2022-08-20T04:05:17;16.70;99.90
12893;DHT22;6514;48.606;9.222;2022-08-20T04:07:45;16.70;99.90
12893;DHT22;6514;48.606;9.222;2022-08-20T04:10:13;16.70;99.90
12893;DHT22;6514;48.606;9.222;2022-08-20T04:12:40;16.80;99.90
12893;DHT22;6514;48.606;9.222;2022-08-20T04:15:09;16.80;99.90
12893;DHT22;6514;48.606;9.222;2022-08-20T04:17:38;16.80;99.90
12893;DHT22;6514;48.606;9.222;2022-08-20T04:20:08;16.80;99.90
12893;DHT22;6514;48.606;9.222;2022-08-20T04:22:36;16.80;99.90
12893;DHT22;6514;48.606;9.222;2022-08-20T04:25:04;16.80;99.90
12893;DHT22;6514;48.606;9.222;2022-08-20T04:27:35;16.80;99.90
12893;DHT22;6514;48.606;9.222;2022-08-20T04:30:03;16.80;99.90
12893;DHT22;6514;48.606;9.222;2022-08-20T04:32:30;16.90;99.90
12893;DHT22;6514;48.606;9.222;2022-08-20T04:35:00;16.90;99.90
12893;DHT22;6514;48.606;9.222;2022-08-20T04:37:27;16.90;99.90
12893;DHT22;6514;48.606;9.222;2022-08-20T04:39:55;16.90;99.90
12893;DHT22;6514;48.606;9.222;2022-08-20T04:42:41;16.90;99.90
12893;DHT22;6514;48.606;9.222;2022-08-20T04:45:08;16.90;99.90
12893;DHT22;6514;48.606;9.222;2022-08-20T04:47:35;16.90;99.90
12893;DHT22;6514;48.606;9.222;2022-08-20T04:50:03;16.90;99.90
12893;DHT22;6514;48.606;9.222;2022-08-20T04:52:33;17.00;99.90
12893;DHT22;6514;48.606;9.222;2022-08-20T04:55:02;17.00;99.90
12893;DHT22;6514;48.606;9.222;2022-08-20T04:57:30;17.00;99.90
12893;DHT22;6514;48.606;9.222;2022-08-20T04:59:58;17.00;99.90
12893;DHT22;6514;48.606;9.222;2022-08-20T05:02:25;17.00;99.90
12893;DHT22;6514;48.606;9.222;2022-08-20T05:04:52;17.10;99.90
12893;DHT22;6514;48.606;9.222;2022-08-20T05:07:19;17.10;99.90
12893;DHT22;6514;48.606;9.222;2022-08-20T05:09:46;17.20;99.90
12893;DHT22;6514;48.606;9.222;2022-08-20T05:12:13;17.10;99.90
12893;DHT22;6514;48.606;9.222;2022-08-20T05:14:43;17.20;99.90
12893;DHT22;6514;48.606;9.222;2022-08-20T05:17:11;17.30;99.90
12893;DHT22;6514;48.606;9.222;2022-08-20T05:19:39;17.20;99.90
12893;DHT22;6514;48.606;9.222;2022-08-20T05:22:07;17.30;99.90
12893;DHT22;6514;48.606;9.222;2022-08-20T05:24:34;17.30;99.90
12893;DHT22;6514;48.606;9.222;2022-08-20T05:27:01;17.30;99.90
12893;DHT22;6514;48.606;9.222;2022-08-20T05:29:28;17.30;99.90
12893;DHT22;6514;48.606;9.222;2022-08-20T05:31:55;17.30;99.90
12893;DHT22;6514;48.606;9.222;2022-08-20T05:34:23;17.30;99.90
12893;DHT22;6514;48.606;9.222;2022-08-20T05:36:50;17.40;99.90
12893;DHT22;6514;48.606;9.222;2022-08-20T05:39:18;17.40;99.90
12893;DHT22;6514;48.606;9.222;2022-08-20T05:41:46;17.40;99.90
12893;DHT22;6514;48.606;9.222;2022-08-20T05:44:14;17.40;99.90
12893;DHT22;6514;48.606;9.222;2022-08-20T05:46:43;17.40;99.90
12893;DHT22;6514;48.606;9.222;2022-08-20T05:49:13;17.40;99.90
12893;DHT22;6514;48.606;9.222;2022-08-20T05:51:42;17.40;99.90
12893;DHT22;6514;48.606;9.222;2022-08-20T05:54:09;17.40;99.90
12893;DHT22;6514;48.606;9.222;2022-08-20T05:56:36;17.50;99.90
12893;DHT22;6514;48.606;9.222;2022-08-20T05:59:05;17.60;99.90
12893;DHT22;6514;48.606;9.222;2022-08-20T06:01:35;17.80;99.90
12893;DHT22;6514;48.606;9.222;2022-08-20T06:04:03;18.00;99.90
12893;DHT22;6514;48.606;9.222;2022-08-20T06:06:49;18.10;99.90
12893;DHT22;6514;48.606;9.222;2022-08-20T06:09:18;18.30;99.90
12893;DHT22;6514;48.606;9.222;2022-08-20T06:11:45;18.30;99.90
12893;DHT22;6514;48.606;9.222;2022-08-20T06:14:12;18.40;99.90
12893;DHT22;6514;48.606;9.222;2022-08-20T06:16:41;18.40;99.90
12893;DHT22;6514;48.606;9.222;2022-08-20T06:19:09;18.40;99.90
12893;DHT22;6514;48.606;9.222;2022-08-20T06:21:36;18.50;99.90
12893;DHT22;6514;48.606;9.222;2022-08-20T06:24:04;18.50;99.90
12893;DHT22;6514;48.606;9.222;2022-08-20T06:26:32;18.60;99.90
12893;DHT22;6514;48.606;9.222;2022-08-20T06:29:00;18.70;99.90
12893;DHT22;6514;48.606;9.222;2022-08-20T06:31:27;18.80;99.90
12893;DHT22;6514;48.606;9.222;2022-08-20T06:33:54;18.90;99.90
12893;DHT22;6514;48.606;9.222;2022-08-20T06:36:22;18.90;99.90
12893;DHT22;6514;48.606;9.222;2022-08-20T06:38:49;19.00;99.90
12893;DHT22;6514;48.606;9.222;2022-08-20T06:41:17;19.10;99.90
12893;DHT22;6514;48.606;9.222;2022-08-20T06:43:44;19.30;99.90
12893;DHT22;6514;48.606;9.222;2022-08-20T06:46:11;19.40;99.90
12893;DHT22;6514;48.606;9.222;2022-08-20T06:48:39;19.60;99.90
12893;DHT22;6514;48.606;9.222;2022-08-20T06:51:06;19.70;99.90
12893;DHT22;6514;48.606;9.222;2022-08-20T06:53:34;19.90;99.90
12893;DHT22;6514;48.606;9.222;2022-08-20T06:56:01;20.10;99.90
12893;DHT22;6514;48.606;9.222;2022-08-20T06:58:30;20.30;99.90
12893;DHT22;6514;48.606;9.222;2022-08-20T07:00:57;20.50;99.90
12893;DHT22;6514;48.606;9.222;2022-08-20T07:03:25;20.60;99.90
12893;DHT22;6514;48.606;9.222;2022-08-20T07:05:52;20.70;99.90
12893;DHT22;6514;48.606;9.222;2022-08-20T07:08:19;20.70;99.90
12893;DHT22;6514;48.606;9.222;2022-08-20T07:10:46;20.70;99.90
12893;DHT22;6514;48.606;9.222;2022-08-20T07:13:13;20.70;99.90
12893;DHT22;6514;48.606;9.222;2022-08-20T07:15:43;20.70;99.90
12893;DHT22;6514;48.606;9.222;2022-08-20T07:18:11;20.70;99.90
12893;DHT22;6514;48.606;9.222;2022-08-20T07:20:38;20.60;99.90
12893;DHT22;6514;48.606;9.222;2022-08-20T07:23:06;20.60;99.90
12893;DHT22;6514;48.606;9.222;2022-08-20T07:25:35;20.50;99.90
12893;DHT22;6514;48.606;9.222;2022-08-20T07:28:03;20.40;99.90
12893;DHT22;6514;48.606;9.222;2022-08-20T07:30:30;20.40;99.90
12893;DHT22;6514;48.606;9.222;2022-08-20T07:33:16;20.40;99.90
12893;DHT22;6514;48.606;9.222;2022-08-20T07:35:43;20.50;99.90
12893;DHT22;6514;48.606;9.222;2022-08-20T07:38:14;20.50;99.90
12893;DHT22;6514;48.606;9.222;2022-08-20T07:40:43;20.60;99.90
12893;DHT22;6514;48.606;9.222;2022-08-20T07:43:13;20.60;99.90
12893;DHT22;6514;48.606;9.222;2022-08-20T07:45:40;20.70;99.90
12893;DHT22;6514;48.606;9.222;2022-08-20T07:48:09;20.80;99.90
12893;DHT22;6514;48.606;9.222;2022-08-20T07:50:38;21.00;99.90
12893;DHT22;6514;48.606;9.222;2022-08-20T07:53:05;21.20;99.90
12893;DHT22;6514;48.606;9.222;2022-08-20T07:55:33;21.40;99.90
12893;DHT22;6514;48.606;9.222;2022-08-20T07:58:08;21.50;99.90
12893;DHT22;6514;48.606;9.222;2022-08-20T08:00:35;21.60;99.90
12893;DHT22;6514;48.606;9.222;2022-08-20T08:03:02;21.80;99.90
12893;DHT22;6514;48.606;9.222;2022-08-20T08:05:30;22.00;99.90
12893;DHT22;6514;48.606;9.222;2022-08-20T08:07:58;22.10;99.90
12893;DHT22;6514;48.606;9.222;2022-08-20T08:10:26;22.30;99.90
12893;DHT22;6514;48.606;9.222;2022-08-20T08:12:58;22.40;99.90
12893;DHT22;6514;48.606;9.222;2022-08-20T08:15:30;22.70;99.90
12893;DHT22;6514;48.606;9.222;2022-08-20T08:18:01;22.80;99.90
12893;DHT22;6514;48.606;9.222;2022-08-20T08:20:30;23.00;99.90
12893;DHT22;6514;48.606;9.222;2022-08-20T08:22:59;23.30;99.90
12893;DHT22;6514;48.606;9.222;2022-08-20T08:25:26;23.50;99.90
12893;DHT22;6514;48.606;9.222;2022-08-20T08:27:53;23.80;99.90
12893;DHT22;6514;48.606;9.222;2022-08-20T08:30:20;24.10;99.90
12893;DHT22;6514;48.606;9.222;2022-08-20T08:32:47;24.50;99.90
12893;DHT22;6514;48.606;9.222;2022-08-20T08:35:28;24.70;99.90
12893;DHT22;6514;48.606;9.222;2022-08-20T08:37:58;25.10;99.90
12893;DHT22;6514;48.606;9.222;2022-08-20T08:40:28;25.30;99.90
12893;DHT22;6514;48.606;9.222;2022-08-20T08:42:56;25.60;99.90
12893;DHT22;6514;48.606;9.222;2022-08-20T08:45:28;25.40;99.90
12893;DHT22;6514;48.606;9.222;2022-08-20T08:47:58;25.40;99.90
12893;DHT22;6514;48.606;9.222;2022-08-20T08:50:32;25.60;99.90
12893;DHT22;6514;48.606;9.222;2022-08-20T08:53:02;25.60;99.90
12893;DHT22;6514;48.606;9.222;2022-08-20T08:55:31;25.80;99.90
12893;DHT22;6514;48.606;9.222;2022-08-20T08:58:00;26.10;99.90
12893;DHT22;6514;48.606;9.222;2022-08-20T09:00:28;26.40;99.90
12893;DHT22;6514;48.606;9.222;2022-08-20T09:02:58;26.90;99.90
12893;DHT22;6514;48.606;9.222;2022-08-20T09:05:30;27.20;99.90
12893;DHT22;6514;48.606;9.222;2022-08-20T09:08:02;27.30;99.90
12893;DHT22;6514;48.606;9.222;2022-08-20T09:10:31;27.30;99.90
12893;DHT22;6514;48.606;9.222;2022-08-20T09:12:58;27.20;99.90
12893;DHT22;6514;48.606;9.222;2022-08-20T09:15:26;27.30;99.90
12893;DHT22;6514;48.606;9.222;2022-08-20T09:17:53;27.50;99.90
12893;DHT22;6514;48.606;9.222;2022-08-20T09:20:20;27.80;99.90
12893;DHT22;6514;48.606;9.222;2022-08-20T09:22:47;27.90;99.90
12893;DHT22;6514;48.606;9.222;2022-08-20T09:25:16;27.90;99.90
12893;DHT22;6514;48.606;9.222;2022-08-20T09:27:43;27.80;99.90
12893;DHT22;6514;48.606;9.222;2022-08-20T09:30:12;27.50;99.90
12893;DHT22;6514;48.606;9.222;2022-08-20T09:32:40;27.20;99.90
12893;DHT22;6514;48.606;9.222;2022-08-20T09:35:08;27.00;99.90
12893;DHT22;6514;48.606;9.222;2022-08-20T09:37:36;26.80;99.90
12893;DHT22;6514;48.606;9.222;2022-08-20T09:40:04;27.20;99.90
12893;DHT22;6514;48.606;9.222;2022-08-20T09:42:36;27.70;99.90
12893;DHT22;6514;48.606;9.222;2022-08-20T09:45:05;27.90;99.90
12893;DHT22;6514;48.606;9.222;2022-08-20T09:47:32;28.20;99.90
12893;DHT22;6514;48.606;9.222;2022-08-20T09:49:59;28.50;99.90
12893;DHT22;6514;48.606;9.222;2022-08-20T09:52:28;29.10;99.90
12893;DHT22;6514;48.606;9.222;2022-08-20T09:54:59;29.20;99.90
12893;DHT22;6514;48.606;9.222;2022-08-20T09:57:27;29.30;99.90
12893;DHT22;6514;48.606;9.222;2022-08-20T10:00:00;29.20;99.90
12893;DHT22;6514;48.606;9.222;2022-08-20T10:02:27;29.40;99.90
12893;DHT22;6514;48.606;9.222;2022-08-20T10:04:54;29.60;99.90
12893;DHT22;6514;48.606;9.222;2022-08-20T10:07:21;29.60;99.90
12893;DHT22;6514;48.606;9.222;2022-08-20T10:09:48;30.00;99.90
12893;DHT22;6514;48.606;9.222;2022-08-20T10:12:15;30.50;99.90
12893;DHT22;6514;48.606;9.222;2022-08-20T10:14:42;30.50;99.90
12893;DHT22;6514;48.606;9.222;2022-08-20T10:17:10;30.10;99.90
12893;DHT22;6514;48.606;9.222;2022-08-20T10:19:37;29.50;99.90
12893;DHT22;6514;48.606;9.222;2022-08-20T10:22:05;28.10;99.90
12893;DHT22;6514;48.606;9.222;2022-08-20T10:24:32;26.50;99.90
12893;DHT22;6514;48.606;9.222;2022-08-20T10:27:00;25.40;99.90
12893;DHT22;6514;48.606;9.222;2022-08-20T10:29:29;24.60;99.90
12893;DHT22;6514;48.606;9.222;2022-08-20T10:31:56;24.20;99.90
12893;DHT22;6514;48.606;9.222;2022-08-20T10:34:35;23.80;99.90
12893;DHT22;6514;48.606;9.222;2022-08-20T10:37:02;23.60;99.90
12893;DHT22;6514;48.606;9.222;2022-08-20T10:39:28;23.50;99.90
12893;DHT22;6514;48.606;9.222;2022-08-20T10:41:55;23.40;99.90
12893;DHT22;6514;48.606;9.222;2022-08-20T10:44:22;23.40;99.90
12893;DHT22;6514;48.606;9.222;2022-08-20T10:46:50;23.30;99.90
12893;DHT22;6514;48.606;9.222;2022-08-20T10:49:17;23.30;99.90
12893;DHT22;6514;48.606;9.222;2022-08-20T10:51:46;23.40;99.90
12893;DHT22;6514;48.606;9.222;2022-08-20T10:54:13;23.70;99.90
12893;DHT22;6514;48.606;9.222;2022-08-20T10:56:40;23.80;99.90
12893;DHT22;6514;48.606;9.222;2022-08-20T10:59:07;23.70;99.90
12893;DHT22;6514;48.606;9.222;2022-08-20T11:01:34;23.50;99.90
12893;DHT22;6514;48.606;9.222;2022-08-20T11:04:01;23.10;99.90
12893;DHT22;6514;48.606;9.222;2022-08-20T11:06:28;22.80;99.90
12893;DHT22;6514;48.606;9.222;2022-08-20T11:08:56;22.40;99.90
12893;DHT22;6514;48.606;9.222;2022-08-20T11:11:23;22.10;99.90
12893;DHT22;6514;48.606;9.222;2022-08-20T11:13:50;21.80;99.90
12893;DHT22;6514;48.606;9.222;2022-08-20T11:16:17;21.60;99.90
12893;DHT22;6514;48.606;9.222;2022-08-20T11:18:44;21.30;99.90
12893;DHT22;6514;48.606;9.222;2022-08-20T11:21:11;21.10;99.90
12893;DHT22;6514;48.606;9.222;2022-08-20T11:23:38;20.90;99.90
12893;DHT22;6514;48.606;9.222;2022-08-20T11:26:06;20.90;99.90
12893;DHT22;6514;48.606;9.222;2022-08-20T11:28:33;20.90;99.90
12893;DHT22;6514;48.606;9.222;2022-08-20T11:31:01;20.90;99.90
12893;DHT22;6514;48.606;9.222;2022-08-20T11:33:28;20.90;99.90
12893;DHT22;6514;48.606;9.222;2022-08-20T11:35:55;20.80;99.90
12893;DHT22;6514;48.606;9.222;2022-08-20T11:38:21;20.70;99.90
12893;DHT22;6514;48.606;9.222;2022-08-20T11:40:48;20.60;99.90
12893;DHT22;6514;48.606;9.222;2022-08-20T11:43:17;20.50;99.90
12893;DHT22;6514;48.606;9.222;2022-08-20T11:45:45;20.50;99.90
12893;DHT22;6514;48.606;9.222;2022-08-20T11:48:13;20.50;99.90
12893;DHT22;6514;48.606;9.222;2022-08-20T11:50:41;20.60;99.90
12893;DHT22;6514;48.606;9.222;2022-08-20T11:53:08;20.60;99.90
12893;DHT22;6514;48.606;9.222;2022-08-20T11:55:35;20.70;99.90
12893;DHT22;6514;48.606;9.222;2022-08-20T11:58:03;20.80;99.90
12893;DHT22;6514;48.606;9.222;2022-08-20T12:00:31;20.90;99.90
12893;DHT22;6514;48.606;9.222;2022-08-20T12:02:58;21.00;99.90
12893;DHT22;6514;48.606;9.222;2022-08-20T12:05:25;21.10;99.90
12893;DHT22;6514;48.606;9.222;2022-08-20T12:07:53;21.10;99.90
12893;DHT22;6514;48.606;9.222;2022-08-20T12:10:21;21.20;99.90
12893;DHT22;6514;48.606;9.222;2022-08-20T12:12:50;21.30;99.90
12893;DHT22;6514;48.606;9.222;2022-08-20T12:15:17;21.50;99.90
12893;DHT22;6514;48.606;9.222;2022-08-20T12:17:46;21.60;99.90
12893;DHT22;6514;48.606;9.222;2022-08-20T12:20:13;21.70;99.90
12893;DHT22;6514;48.606;9.222;2022-08-20T12:22:41;21.70;99.90
12893;DHT22;6514;48.606;9.222;2022-08-20T12:25:08;21.80;99.90
12893;DHT22;6514;48.606;9.222;2022-08-20T12:27:36;22.00;99.90
12893;DHT22;6514;48.606;9.222;2022-08-20T12:30:06;22.10;99.90
12893;DHT22;6514;48.606;9.222;2022-08-20T12:32:34;22.30;99.90
12893;DHT22;6514;48.606;9.222;2022-08-20T12:35:03;22.50;99.90
12893;DHT22;6514;48.606;9.222;2022-08-20T12:37:30;22.70;99.90
12893;DHT22;6514;48.606;9.222;2022-08-20T12:39:59;22.90;99.90
12893;DHT22;6514;48.606;9.222;2022-08-20T12:42:27;23.00;99.90
12893;DHT22;6514;48.606;9.222;2022-08-20T12:44:55;23.10;99.90
12893;DHT22;6514;48.606;9.222;2022-08-20T12:47:24;23.30;99.90
12893;DHT22;6514;48.606;9.222;2022-08-20T12:49:54;23.50;99.90
12893;DHT22;6514;48.606;9.222;2022-08-20T12:52:24;23.70;99.90
12893;DHT22;6514;48.606;9.222;2022-08-20T12:54:52;23.70;99.90
12893;DHT22;6514;48.606;9.222;2022-08-20T12:57:23;23.60;99.90
12893;DHT22;6514;48.606;9.222;2022-08-20T12:59:50;23.60;99.90
12893;DHT22;6514;48.606;9.222;2022-08-20T13:02:17;23.80;99.90
12893;DHT22;6514;48.606;9.222;2022-08-20T13:04:44;23.90;99.90
12893;DHT22;6514;48.606;9.222;2022-08-20T13:07:12;23.90;99.90
12893;DHT22;6514;48.606;9.222;2022-08-20T13:09:41;24.10;99.90
12893;DHT22;6514;48.606;9.222;2022-08-20T13:12:09;24.20;99.90
12893;DHT22;6514;48.606;9.222;2022-08-20T13:14:36;24.20;99.90
12893;DHT22;6514;48.606;9.222;2022-08-20T13:17:03;24.20;99.90
12893;DHT22;6514;48.606;9.222;2022-08-20T13:19:32;24.20;99.90
12893;DHT22;6514;48.606;9.222;2022-08-20T13:22:00;24.10;99.90
12893;DHT22;6514;48.606;9.222;2022-08-20T13:24:27;23.90;99.90
12893;DHT22;6514;48.606;9.222;2022-08-20T13:27:03;23.80;99.90
12893;DHT22;6514;48.606;9.222;2022-08-20T13:29:30;23.80;99.90
12893;DHT22;6514;48.606;9.222;2022-08-20T13:31:57;23.60;99.90
12893;DHT22;6514;48.606;9.222;2022-08-20T13:34:23;23.50;99.90
12893;DHT22;6514;48.606;9.222;2022-08-20T13:36:50;23.40;99.90
12893;DHT22;6514;48.606;9.222;2022-08-20T13:39:20;23.40;99.90
12893;DHT22;6514;48.606;9.222;2022-08-20T13:41:48;23.50;99.90
12893;DHT22;6514;48.606;9.222;2022-08-20T13:44:16;23.50;99.90
12893;DHT22;6514;48.606;9.222;2022-08-20T13:46:43;23.80;99.90
12893;DHT22;6514;48.606;9.222;2022-08-20T13:49:12;24.00;99.90
12893;DHT22;6514;48.606;9.222;2022-08-20T13:51:39;24.10;99.90
12893;DHT22;6514;48.606;9.222;2022-08-20T13:54:06;24.20;99.90
12893;DHT22;6514;48.606;9.222;2022-08-20T13:56:33;24.30;99.90
12893;DHT22;6514;48.606;9.222;2022-08-20T13:58:59;24.70;99.90
12893;DHT22;6514;48.606;9.222;2022-08-20T14:01:28;24.80;99.90
12893;DHT22;6514;48.606;9.222;2022-08-20T14:03:55;24.90;99.90
12893;DHT22;6514;48.606;9.222;2022-08-20T14:06:22;25.10;99.90
12893;DHT22;6514;48.606;9.222;2022-08-20T14:08:49;25.30;99.90
12893;DHT22;6514;48.606;9.222;2022-08-20T14:11:16;25.60;99.90
12893;DHT22;6514;48.606;9.222;2022-08-20T14:13:43;25.70;99.90
12893;DHT22;6514;48.606;9.222;2022-08-20T14:16:10;25.70;99.90
12893;DHT22;6514;48.606;9.222;2022-08-20T14:18:39;26.20;99.90
12893;DHT22;6514;48.606;9.222;2022-08-20T14:21:06;26.10;99.90
12893;DHT22;6514;48.606;9.222;2022-08-20T14:23:32;25.90;99.90
12893;DHT22;6514;48.606;9.222;2022-08-20T14:25:59;25.60;99.90
12893;DHT22;6514;48.606;9.222;2022-08-20T14:28:26;25.30;99.90
12893;DHT22;6514;48.606;9.222;2022-08-20T14:30:53;25.00;99.90
12893;DHT22;6514;48.606;9.222;2022-08-20T14:33:21;24.70;99.90
12893;DHT22;6514;48.606;9.222;2022-08-20T14:35:50;24.40;99.90
12893;DHT22;6514;48.606;9.222;2022-08-20T14:38:17;24.00;99.90
12893;DHT22;6514;48.606;9.222;2022-08-20T14:40:44;23.80;99.90
12893;DHT22;6514;48.606;9.222;2022-08-20T14:43:11;23.50;99.90
12893;DHT22;6514;48.606;9.222;2022-08-20T14:45:38;23.30;99.90
12893;DHT22;6514;48.606;9.222;2022-08-20T14:48:06;23.10;99.90
12893;DHT22;6514;48.606;9.222;2022-08-20T14:50:35;23.00;99.90
12893;DHT22;6514;48.606;9.222;2022-08-20T14:53:04;22.90;99.90
12893;DHT22;6514;48.606;9.222;2022-08-20T14:55:34;22.80;99.90
12893;DHT22;6514;48.606;9.222;2022-08-20T14:58:06;22.70;99.90
12893;DHT22;6514;48.606;9.222;2022-08-20T15:00:33;22.60;99.90
12893;DHT22;6514;48.606;9.222;2022-08-20T15:03:00;22.50;99.90
12893;DHT22;6514;48.606;9.222;2022-08-20T15:05:27;22.50;99.90
12893;DHT22;6514;48.606;9.222;2022-08-20T15:07:55;22.60;99.90
12893;DHT22;6514;48.606;9.222;2022-08-20T15:10:26;22.60;99.90
12893;DHT22;6514;48.606;9.222;2022-08-20T15:12:53;22.60;99.90
12893;DHT22;6514;48.606;9.222;2022-08-20T15:15:21;22.70;99.90
12893;DHT22;6514;48.606;9.222;2022-08-20T15:17:50;22.80;99.90
12893;DHT22;6514;48.606;9.222;2022-08-20T15:20:19;22.90;99.90
12893;DHT22;6514;48.606;9.222;2022-08-20T15:22:48;23.20;99.90
12893;DHT22;6514;48.606;9.222;2022-08-20T15:25:17;23.60;99.90
12893;DHT22;6514;48.606;9.222;2022-08-20T15:27:46;23.70;99.90
12893;DHT22;6514;48.606;9.222;2022-08-20T15:30:17;24.10;99.90
12893;DHT22;6514;48.606;9.222;2022-08-20T15:32:44;24.70;99.90
12893;DHT22;6514;48.606;9.222;2022-08-20T15:35:12;25.30;99.90
12893;DHT22;6514;48.606;9.222;2022-08-20T15:37:41;25.70;99.90
12893;DHT22;6514;48.606;9.222;2022-08-20T15:40:11;26.20;99.90
12893;DHT22;6514;48.606;9.222;2022-08-20T15:42:38;26.60;99.90
12893;DHT22;6514;48.606;9.222;2022-08-20T15:45:07;26.80;99.90
12893;DHT22;6514;48.606;9.222;2022-08-20T15:47:36;27.00;99.90
12893;DHT22;6514;48.606;9.222;2022-08-20T15:50:06;27.10;99.90
12893;DHT22;6514;48.606;9.222;2022-08-20T15:52:36;27.30;99.90
12893;DHT22;6514;48.606;9.222;2022-08-20T15:55:05;27.40;99.90